sensor_id;sensor_type;location;lat;lon;timestamp;P1;durP1;ratioP1;P2;durP2;ratioP2
14141;SDS011;7151;52.246;4.820;2022-09-09T00:04:21;1.20;;;0.93;;
14141;SDS011;7151;52.246;4.820;2022-09-09T00:12:27;1.30;;;0.83;;
14141;SDS011;7151;52.246;4.820;2022-09-09T00:15:14;1.83;;;1.00;;
14141;SDS011;7151;52.246;4.820;2022-09-09T00:18:07;1.67;;;1.10;;
14141;SDS011;7151;52.246;4.820;2022-09-09T00:23:28;2.70;;;1.10;;
14141;SDS011;7151;52.246;4.820;2022-09-09T00:26:19;1.37;;;1.20;;
14141;SDS011;7151;52.246;4.820;2022-09-09T00:31:23;2.47;;;1.40;;
14141;SDS011;7151;52.246;4.820;2022-09-09T00:33:53;2.80;;;1.70;;
14141;SDS011;7151;52.246;4.820;2022-09-09T00:36:21;2.47;;;1.50;;
14141;SDS011;7151;52.246;4.820;2022-09-09T00:38:55;3.27;;;1.37;;
14141;SDS011;7151;52.246;4.820;2022-09-09T00:41:31;3.40;;;1.57;;
14141;SDS011;7151;52.246;4.820;2022-09-09T00:44:37;4.07;;;1.70;;
14141;SDS011;7151;52.246;4.820;2022-09-09T00:47:09;2.60;;;1.87;;
14141;SDS011;7151;52.246;4.820;2022-09-09T00:49:59;3.70;;;1.70;;
14141;SDS011;7151;52.246;4.820;2022-09-09T00:52:36;4.27;;;2.13;;
14141;SDS011;7151;52.246;4.820;2022-09-09T00:55:25;4.87;;;2.17;;
14141;SDS011;7151;52.246;4.820;2022-09-09T00:57:59;4.63;;;2.30;;
14141;SDS011;7151;52.246;4.820;2022-09-09T01:00:26;4.20;;;2.37;;
14141;SDS011;7151;52.246;4.820;2022-09-09T01:03:02;5.63;;;2.30;;
14141;SDS011;7151;52.246;4.820;2022-09-09T01:11:22;8.70;;;2.73;;
14141;SDS011;7151;52.246;4.820;2022-09-09T01:14:02;3.53;;;2.30;;
14141;SDS011;7151;52.246;4.820;2022-09-09T01:16:37;7.60;;;2.70;;
14141;SDS011;7151;52.246;4.820;2022-09-09T01:19:03;3.67;;;2.40;;
14141;SDS011;7151;52.246;4.820;2022-09-09T01:21:41;6.63;;;2.60;;
14141;SDS011;7151;52.246;4.820;2022-09-09T01:24:31;3.80;;;3.23;;
14141;SDS011;7151;52.246;4.820;2022-09-09T01:27:04;4.13;;;2.67;;
14141;SDS011;7151;52.246;4.820;2022-09-09T01:29:31;4.23;;;2.80;;
14141;SDS011;7151;52.246;4.820;2022-09-09T01:31:58;4.33;;;2.67;;
14141;SDS011;7151;52.246;4.820;2022-09-09T01:34:48;3.93;;;2.27;;
14141;SDS011;7151;52.246;4.820;2022-09-09T01:37:15;4.83;;;2.80;;
14141;SDS011;7151;52.246;4.820;2022-09-09T01:39:41;3.50;;;3.17;;
14141;SDS011;7151;52.246;4.820;2022-09-09T01:42:09;5.03;;;2.80;;
14141;SDS011;7151;52.246;4.820;2022-09-09T01:44:39;2.40;;;2.20;;
14141;SDS011;7151;52.246;4.820;2022-09-09T01:47:05;3.00;;;2.53;;
14141;SDS011;7151;52.246;4.820;2022-09-09T01:49:31;4.73;;;2.43;;
14141;SDS011;7151;52.246;4.820;2022-09-09T01:51:58;3.80;;;2.70;;
14141;SDS011;7151;52.246;4.820;2022-09-09T01:54:25;3.17;;;2.57;;
14141;SDS011;7151;52.246;4.820;2022-09-09T02:00:02;3.70;;;2.60;;
14141;SDS011;7151;52.246;4.820;2022-09-09T02:02:48;2.90;;;2.30;;
14141;SDS011;7151;52.246;4.820;2022-09-09T02:10:50;4.07;;;2.60;;
14141;SDS011;7151;52.246;4.820;2022-09-09T02:16:54;10.70;;;2.90;;
14141;SDS011;7151;52.246;4.820;2022-09-09T02:19:30;4.17;;;2.33;;
14141;SDS011;7151;52.246;4.820;2022-09-09T02:21:59;4.37;;;3.10;;
14141;SDS011;7151;52.246;4.820;2022-09-09T02:24:27;4.03;;;2.10;;
14141;SDS011;7151;52.246;4.820;2022-09-09T02:26:56;4.57;;;2.40;;
14141;SDS011;7151;52.246;4.820;2022-09-09T02:29:26;4.20;;;2.60;;
14141;SDS011;7151;52.246;4.820;2022-09-09T02:31:56;3.20;;;2.60;;
14141;SDS011;7151;52.246;4.820;2022-09-09T02:34:27;4.40;;;2.50;;
14141;SDS011;7151;52.246;4.820;2022-09-09T02:36:55;2.70;;;2.30;;
14141;SDS011;7151;52.246;4.820;2022-09-09T02:39:24;2.47;;;2.17;;
14141;SDS011;7151;52.246;4.820;2022-09-09T02:41:50;2.50;;;2.20;;
14141;SDS011;7151;52.246;4.820;2022-09-09T02:44:17;4.73;;;2.70;;
14141;SDS011;7151;52.246;4.820;2022-09-09T02:50:03;3.40;;;2.13;;
14141;SDS011;7151;52.246;4.820;2022-09-09T02:55:39;4.50;;;2.47;;
14141;SDS011;7151;52.246;4.820;2022-09-09T02:58:13;3.60;;;2.60;;
14141;SDS011;7151;52.246;4.820;2022-09-09T03:00:48;2.70;;;1.93;;
14141;SDS011;7151;52.246;4.820;2022-09-09T03:03:15;2.87;;;2.53;;
14141;SDS011;7151;52.246;4.820;2022-09-09T03:05:42;3.93;;;3.03;;
14141;SDS011;7151;52.246;4.820;2022-09-09T03:08:08;3.30;;;2.13;;
14141;SDS011;7151;52.246;4.820;2022-09-09T03:10:34;5.10;;;2.40;;
14141;SDS011;7151;52.246;4.820;2022-09-09T03:13:00;4.87;;;2.27;;
14141;SDS011;7151;52.246;4.820;2022-09-09T03:15:26;6.60;;;2.57;;
14141;SDS011;7151;52.246;4.820;2022-09-09T03:17:54;2.83;;;2.37;;
14141;SDS011;7151;52.246;4.820;2022-09-09T03:20:22;3.90;;;2.50;;
14141;SDS011;7151;52.246;4.820;2022-09-09T03:22:54;3.03;;;2.53;;
14141;SDS011;7151;52.246;4.820;2022-09-09T03:25:21;4.87;;;2.30;;
14141;SDS011;7151;52.246;4.820;2022-09-09T03:27:50;3.93;;;2.53;;
14141;SDS011;7151;52.246;4.820;2022-09-09T03:30:19;4.90;;;2.90;;
14141;SDS011;7151;52.246;4.820;2022-09-09T03:32:48;2.83;;;2.50;;
14141;SDS011;7151;52.246;4.820;2022-09-09T03:35:14;3.50;;;2.70;;
14141;SDS011;7151;52.246;4.820;2022-09-09T03:37:40;5.30;;;3.10;;
14141;SDS011;7151;52.246;4.820;2022-09-09T03:40:06;5.93;;;2.67;;
14141;SDS011;7151;52.246;4.820;2022-09-09T03:42:34;4.97;;;3.00;;
14141;SDS011;7151;52.246;4.820;2022-09-09T03:45:01;3.93;;;2.60;;
14141;SDS011;7151;52.246;4.820;2022-09-09T03:47:28;3.37;;;2.57;;
14141;SDS011;7151;52.246;4.820;2022-09-09T03:49:54;4.30;;;2.93;;
14141;SDS011;7151;52.246;4.820;2022-09-09T03:52:20;5.67;;;3.13;;
14141;SDS011;7151;52.246;4.820;2022-09-09T03:54:46;6.03;;;3.10;;
14141;SDS011;7151;52.246;4.820;2022-09-09T03:57:12;4.30;;;2.67;;
14141;SDS011;7151;52.246;4.820;2022-09-09T03:59:41;3.43;;;2.53;;
14141;SDS011;7151;52.246;4.820;2022-09-09T04:02:07;3.40;;;2.70;;
14141;SDS011;7151;52.246;4.820;2022-09-09T04:04:34;4.20;;;2.57;;
14141;SDS011;7151;52.246;4.820;2022-09-09T04:06:59;5.00;;;2.40;;
14141;SDS011;7151;52.246;4.820;2022-09-09T04:09:25;6.03;;;2.67;;
14141;SDS011;7151;52.246;4.820;2022-09-09T04:11:50;2.90;;;2.30;;
14141;SDS011;7151;52.246;4.820;2022-09-09T04:14:18;6.00;;;2.80;;
14141;SDS011;7151;52.246;4.820;2022-09-09T04:16:43;3.13;;;2.57;;
14141;SDS011;7151;52.246;4.820;2022-09-09T04:19:09;3.30;;;2.30;;
14141;SDS011;7151;52.246;4.820;2022-09-09T04:21:37;4.83;;;2.30;;
14141;SDS011;7151;52.246;4.820;2022-09-09T04:24:04;2.80;;;2.00;;
14141;SDS011;7151;52.246;4.820;2022-09-09T04:26:31;2.83;;;1.80;;
14141;SDS011;7151;52.246;4.820;2022-09-09T04:28:57;4.10;;;2.80;;
14141;SDS011;7151;52.246;4.820;2022-09-09T04:31:23;5.87;;;2.50;;
14141;SDS011;7151;52.246;4.820;2022-09-09T04:33:52;3.30;;;2.00;;
14141;SDS011;7151;52.246;4.820;2022-09-09T04:36:18;2.97;;;2.13;;
14141;SDS011;7151;52.246;4.820;2022-09-09T04:38:44;3.77;;;2.17;;
14141;SDS011;7151;52.246;4.820;2022-09-09T04:41:11;3.23;;;2.17;;
14141;SDS011;7151;52.246;4.820;2022-09-09T04:43:37;4.37;;;2.47;;
14141;SDS011;7151;52.246;4.820;2022-09-09T04:46:04;3.07;;;2.07;;
14141;SDS011;7151;52.246;4.820;2022-09-09T04:48:30;3.30;;;2.20;;
14141;SDS011;7151;52.246;4.820;2022-09-09T04:51:06;4.40;;;2.20;;
14141;SDS011;7151;52.246;4.820;2022-09-09T04:53:34;5.87;;;1.77;;
14141;SDS011;7151;52.246;4.820;2022-09-09T04:58:30;4.67;;;2.13;;
14141;SDS011;7151;52.246;4.820;2022-09-09T05:01:06;5.97;;;2.07;;
14141;SDS011;7151;52.246;4.820;2022-09-09T05:03:34;2.80;;;2.10;;
14141;SDS011;7151;52.246;4.820;2022-09-09T05:08:33;6.37;;;2.20;;
14141;SDS011;7151;52.246;4.820;2022-09-09T05:10:59;3.93;;;2.00;;
14141;SDS011;7151;52.246;4.820;2022-09-09T05:13:25;4.67;;;2.00;;
14141;SDS011;7151;52.246;4.820;2022-09-09T05:15:52;2.97;;;1.70;;
14141;SDS011;7151;52.246;4.820;2022-09-09T05:18:18;2.23;;;1.50;;
14141;SDS011;7151;52.246;4.820;2022-09-09T05:20:44;6.20;;;1.80;;
14141;SDS011;7151;52.246;4.820;2022-09-09T05:23:09;3.43;;;1.63;;
14141;SDS011;7151;52.246;4.820;2022-09-09T05:25:38;2.37;;;1.57;;
14141;SDS011;7151;52.246;4.820;2022-09-09T05:28:05;3.63;;;1.60;;
14141;SDS011;7151;52.246;4.820;2022-09-09T05:30:32;6.77;;;2.10;;
14141;SDS011;7151;52.246;4.820;2022-09-09T05:32:58;6.97;;;1.97;;
14141;SDS011;7151;52.246;4.820;2022-09-09T05:35:24;2.80;;;1.80;;
14141;SDS011;7151;52.246;4.820;2022-09-09T05:37:50;3.30;;;1.67;;
14141;SDS011;7151;52.246;4.820;2022-09-09T05:40:16;2.57;;;1.63;;
14141;SDS011;7151;52.246;4.820;2022-09-09T05:42:41;2.80;;;1.93;;
14141;SDS011;7151;52.246;4.820;2022-09-09T05:45:07;2.87;;;1.80;;
14141;SDS011;7151;52.246;4.820;2022-09-09T05:47:34;3.00;;;1.40;;
14141;SDS011;7151;52.246;4.820;2022-09-09T05:50:00;2.77;;;1.27;;
14141;SDS011;7151;52.246;4.820;2022-09-09T05:52:26;1.83;;;1.40;;
14141;SDS011;7151;52.246;4.820;2022-09-09T05:54:52;1.83;;;1.50;;
14141;SDS011;7151;52.246;4.820;2022-09-09T05:57:19;4.80;;;1.60;;
14141;SDS011;7151;52.246;4.820;2022-09-09T05:59:45;3.20;;;1.80;;
14141;SDS011;7151;52.246;4.820;2022-09-09T06:02:10;4.30;;;1.70;;
14141;SDS011;7151;52.246;4.820;2022-09-09T06:04:37;3.67;;;1.43;;
14141;SDS011;7151;52.246;4.820;2022-09-09T06:07:03;1.60;;;1.23;;
14141;SDS011;7151;52.246;4.820;2022-09-09T06:09:29;4.17;;;1.70;;
14141;SDS011;7151;52.246;4.820;2022-09-09T06:11:55;9.83;;;2.43;;
14141;SDS011;7151;52.246;4.820;2022-09-09T06:14:22;6.40;;;1.90;;
14141;SDS011;7151;52.246;4.820;2022-09-09T06:16:48;8.63;;;2.40;;
14141;SDS011;7151;52.246;4.820;2022-09-09T06:19:14;3.23;;;1.70;;
14141;SDS011;7151;52.246;4.820;2022-09-09T06:21:39;2.00;;;1.40;;
14141;SDS011;7151;52.246;4.820;2022-09-09T06:24:06;1.97;;;1.13;;
14141;SDS011;7151;52.246;4.820;2022-09-09T06:26:36;3.33;;;1.40;;
14141;SDS011;7151;52.246;4.820;2022-09-09T06:29:05;3.03;;;1.67;;
14141;SDS011;7151;52.246;4.820;2022-09-09T06:31:33;7.60;;;1.40;;
14141;SDS011;7151;52.246;4.820;2022-09-09T06:34:00;1.33;;;1.23;;
14141;SDS011;7151;52.246;4.820;2022-09-09T06:36:30;1.80;;;1.30;;
14141;SDS011;7151;52.246;4.820;2022-09-09T06:38:57;2.93;;;1.60;;
14141;SDS011;7151;52.246;4.820;2022-09-09T06:41:25;3.10;;;1.30;;
14141;SDS011;7151;52.246;4.820;2022-09-09T06:43:53;4.90;;;1.57;;
14141;SDS011;7151;52.246;4.820;2022-09-09T06:46:21;6.27;;;1.57;;
14141;SDS011;7151;52.246;4.820;2022-09-09T06:48:49;5.17;;;1.60;;
14141;SDS011;7151;52.246;4.820;2022-09-09T06:51:18;4.23;;;1.77;;
14141;SDS011;7151;52.246;4.820;2022-09-09T06:53:52;3.63;;;1.63;;
14141;SDS011;7151;52.246;4.820;2022-09-09T06:58:53;9.50;;;1.60;;
14141;SDS011;7151;52.246;4.820;2022-09-09T07:01:20;4.47;;;1.43;;
14141;SDS011;7151;52.246;4.820;2022-09-09T07:03:52;2.13;;;1.20;;
14141;SDS011;7151;52.246;4.820;2022-09-09T07:06:24;3.13;;;1.93;;
14141;SDS011;7151;52.246;4.820;2022-09-09T07:08:51;5.77;;;1.60;;
14141;SDS011;7151;52.246;4.820;2022-09-09T07:11:18;3.40;;;1.47;;
14141;SDS011;7151;52.246;4.820;2022-09-09T07:13:45;3.67;;;1.97;;
14141;SDS011;7151;52.246;4.820;2022-09-09T07:16:12;1.53;;;1.40;;
14141;SDS011;7151;52.246;4.820;2022-09-09T07:18:40;7.20;;;2.17;;
14141;SDS011;7151;52.246;4.820;2022-09-09T07:21:07;2.57;;;1.60;;
14141;SDS011;7151;52.246;4.820;2022-09-09T07:23:34;3.80;;;1.30;;
14141;SDS011;7151;52.246;4.820;2022-09-09T07:26:01;3.27;;;2.00;;
14141;SDS011;7151;52.246;4.820;2022-09-09T07:28:27;3.17;;;2.00;;
14141;SDS011;7151;52.246;4.820;2022-09-09T07:30:56;4.43;;;1.83;;
14141;SDS011;7151;52.246;4.820;2022-09-09T07:33:23;3.77;;;1.60;;
14141;SDS011;7151;52.246;4.820;2022-09-09T07:35:50;3.97;;;2.50;;
14141;SDS011;7151;52.246;4.820;2022-09-09T07:38:16;7.00;;;2.23;;
14141;SDS011;7151;52.246;4.820;2022-09-09T07:40:42;5.43;;;1.90;;
14141;SDS011;7151;52.246;4.820;2022-09-09T07:43:08;4.93;;;1.80;;
14141;SDS011;7151;52.246;4.820;2022-09-09T07:45:34;3.00;;;2.13;;
14141;SDS011;7151;52.246;4.820;2022-09-09T07:48:00;5.67;;;2.07;;
14141;SDS011;7151;52.246;4.820;2022-09-09T07:50:26;6.03;;;2.27;;
14141;SDS011;7151;52.246;4.820;2022-09-09T07:52:52;3.53;;;2.07;;
14141;SDS011;7151;52.246;4.820;2022-09-09T07:55:18;6.03;;;2.10;;
14141;SDS011;7151;52.246;4.820;2022-09-09T07:57:52;5.03;;;2.20;;
14141;SDS011;7151;52.246;4.820;2022-09-09T08:00:18;10.03;;;2.50;;
14141;SDS011;7151;52.246;4.820;2022-09-09T08:02:44;5.23;;;2.23;;
14141;SDS011;7151;52.246;4.820;2022-09-09T08:05:11;7.47;;;2.10;;
14141;SDS011;7151;52.246;4.820;2022-09-09T08:07:37;5.10;;;2.57;;
14141;SDS011;7151;52.246;4.820;2022-09-09T08:10:03;3.33;;;2.07;;
14141;SDS011;7151;52.246;4.820;2022-09-09T08:12:29;5.07;;;2.30;;
14141;SDS011;7151;52.246;4.820;2022-09-09T08:14:55;5.67;;;2.70;;
14141;SDS011;7151;52.246;4.820;2022-09-09T08:17:20;4.10;;;2.37;;
14141;SDS011;7151;52.246;4.820;2022-09-09T08:19:46;6.03;;;2.23;;
14141;SDS011;7151;52.246;4.820;2022-09-09T08:22:11;6.27;;;2.13;;
14141;SDS011;7151;52.246;4.820;2022-09-09T08:24:37;5.57;;;2.47;;
14141;SDS011;7151;52.246;4.820;2022-09-09T08:27:02;3.07;;;2.03;;
14141;SDS011;7151;52.246;4.820;2022-09-09T08:29:28;2.73;;;1.87;;
14141;SDS011;7151;52.246;4.820;2022-09-09T08:31:54;4.27;;;2.17;;
14141;SDS011;7151;52.246;4.820;2022-09-09T08:34:22;5.87;;;2.07;;
14141;SDS011;7151;52.246;4.820;2022-09-09T08:36:49;3.27;;;2.27;;
14141;SDS011;7151;52.246;4.820;2022-09-09T08:39:16;8.00;;;2.97;;
14141;SDS011;7151;52.246;4.820;2022-09-09T08:56:04;4.60;;;2.23;;
14141;SDS011;7151;52.246;4.820;2022-09-09T08:58:20;4.73;;;2.27;;
14141;SDS011;7151;52.246;4.820;2022-09-09T09:01:02;5.17;;;2.03;;
14141;SDS011;7151;52.246;4.820;2022-09-09T09:09:02;4.23;;;3.30;;
14141;SDS011;7151;52.246;4.820;2022-09-09T09:11:40;4.30;;;1.90;;
14141;SDS011;7151;52.246;4.820;2022-09-09T09:14:22;4.37;;;1.90;;
14141;SDS011;7151;52.246;4.820;2022-09-09T09:19:23;4.57;;;2.43;;
14141;SDS011;7151;52.246;4.820;2022-09-09T09:21:56;2.90;;;2.20;;
14141;SDS011;7151;52.246;4.820;2022-09-09T09:30:18;3.37;;;1.73;;
14141;SDS011;7151;52.246;4.820;2022-09-09T09:32:59;4.60;;;2.47;;
14141;SDS011;7151;52.246;4.820;2022-09-09T09:35:48;4.30;;;2.17;;
14141;SDS011;7151;52.246;4.820;2022-09-09T09:38:16;3.67;;;1.70;;
14141;SDS011;7151;52.246;4.820;2022-09-09T09:40:52;3.40;;;2.37;;
14141;SDS011;7151;52.246;4.820;2022-09-09T09:43:32;2.20;;;1.63;;
14141;SDS011;7151;52.246;4.820;2022-09-09T09:46:00;3.23;;;2.00;;
14141;SDS011;7151;52.246;4.820;2022-09-09T09:48:28;5.67;;;2.50;;
14141;SDS011;7151;52.246;4.820;2022-09-09T09:50:55;3.10;;;1.67;;
14141;SDS011;7151;52.246;4.820;2022-09-09T09:55:54;4.33;;;2.30;;
14141;SDS011;7151;52.246;4.820;2022-09-09T09:58:22;3.53;;;1.97;;
14141;SDS011;7151;52.246;4.820;2022-09-09T10:00:50;3.37;;;1.97;;
14141;SDS011;7151;52.246;4.820;2022-09-09T10:03:28;3.83;;;2.17;;
14141;SDS011;7151;52.246;4.820;2022-09-09T10:05:56;2.80;;;1.90;;
14141;SDS011;7151;52.246;4.820;2022-09-09T10:08:26;3.83;;;1.70;;
14141;SDS011;7151;52.246;4.820;2022-09-09T10:13:50;6.93;;;2.47;;
14141;SDS011;7151;52.246;4.820;2022-09-09T10:16:38;5.10;;;2.23;;
14141;SDS011;7151;52.246;4.820;2022-09-09T10:19:09;5.27;;;1.83;;
14141;SDS011;7151;52.246;4.820;2022-09-09T10:21:46;2.43;;;1.67;;
14141;SDS011;7151;52.246;4.820;2022-09-09T10:27:15;3.17;;;1.67;;
14141;SDS011;7151;52.246;4.820;2022-09-09T10:32:37;3.10;;;1.40;;
14141;SDS011;7151;52.246;4.820;2022-09-09T10:43:39;3.50;;;1.57;;
14141;SDS011;7151;52.246;4.820;2022-09-09T10:54:40;2.63;;;1.80;;
14141;SDS011;7151;52.246;4.820;2022-09-09T10:57:14;6.23;;;1.67;;
14141;SDS011;7151;52.246;4.820;2022-09-09T10:59:43;3.87;;;1.57;;
14141;SDS011;7151;52.246;4.820;2022-09-09T11:02:14;3.20;;;2.00;;
14141;SDS011;7151;52.246;4.820;2022-09-09T11:04:52;6.67;;;2.20;;
14141;SDS011;7151;52.246;4.820;2022-09-09T11:07:49;6.23;;;1.83;;
14141;SDS011;7151;52.246;4.820;2022-09-09T11:13:04;4.17;;;1.47;;
14141;SDS011;7151;52.246;4.820;2022-09-09T11:15:45;5.40;;;1.60;;
14141;SDS011;7151;52.246;4.820;2022-09-09T11:18:19;3.00;;;1.10;;
14141;SDS011;7151;52.246;4.820;2022-09-09T11:20:48;2.07;;;1.17;;
14141;SDS011;7151;52.246;4.820;2022-09-09T11:23:23;1.77;;;1.03;;
14141;SDS011;7151;52.246;4.820;2022-09-09T11:26:05;1.33;;;1.23;;
14141;SDS011;7151;52.246;4.820;2022-09-09T11:28:52;2.20;;;1.40;;
14141;SDS011;7151;52.246;4.820;2022-09-09T11:39:57;1.30;;;1.20;;
14141;SDS011;7151;52.246;4.820;2022-09-09T11:42:35;2.10;;;1.17;;
14141;SDS011;7151;52.246;4.820;2022-09-09T11:45:10;1.87;;;1.47;;
14141;SDS011;7151;52.246;4.820;2022-09-09T11:47:52;1.10;;;1.00;;
14141;SDS011;7151;52.246;4.820;2022-09-09T11:52:45;3.20;;;1.50;;
14141;SDS011;7151;52.246;4.820;2022-09-09T11:55:26;1.77;;;1.20;;
14141;SDS011;7151;52.246;4.820;2022-09-09T11:58:01;1.83;;;1.10;;
14141;SDS011;7151;52.246;4.820;2022-09-09T12:00:38;1.40;;;1.30;;
14141;SDS011;7151;52.246;4.820;2022-09-09T12:03:10;2.67;;;1.60;;
14141;SDS011;7151;52.246;4.820;2022-09-09T12:06:19;2.07;;;1.30;;
14141;SDS011;7151;52.246;4.820;2022-09-09T12:08:57;3.83;;;1.57;;
14141;SDS011;7151;52.246;4.820;2022-09-09T12:11:50;1.97;;;1.40;;
14141;SDS011;7151;52.246;4.820;2022-09-09T12:14:23;1.57;;;1.30;;
14141;SDS011;7151;52.246;4.820;2022-09-09T12:17:23;1.70;;;1.37;;
14141;SDS011;7151;52.246;4.820;2022-09-09T12:20:01;2.97;;;1.73;;
14141;SDS011;7151;52.246;4.820;2022-09-09T12:28:30;1.53;;;1.20;;
14141;SDS011;7151;52.246;4.820;2022-09-09T12:31:07;3.10;;;1.90;;
14141;SDS011;7151;52.246;4.820;2022-09-09T12:33:42;5.60;;;1.73;;
14141;SDS011;7151;52.246;4.820;2022-09-09T12:36:11;3.40;;;1.60;;
14141;SDS011;7151;52.246;4.820;2022-09-09T12:38:41;5.23;;;1.90;;
14141;SDS011;7151;52.246;4.820;2022-09-09T12:41:17;2.27;;;1.53;;
14141;SDS011;7151;52.246;4.820;2022-09-09T12:43:49;2.50;;;2.00;;
14141;SDS011;7151;52.246;4.820;2022-09-09T12:46:33;3.30;;;2.03;;
14141;SDS011;7151;52.246;4.820;2022-09-09T12:49:03;2.50;;;2.20;;
14141;SDS011;7151;52.246;4.820;2022-09-09T12:51:30;4.97;;;2.20;;
14141;SDS011;7151;52.246;4.820;2022-09-09T12:53:58;4.17;;;2.63;;
14141;SDS011;7151;52.246;4.820;2022-09-09T12:56:25;6.10;;;2.43;;
14141;SDS011;7151;52.246;4.820;2022-09-09T12:58:58;6.17;;;2.60;;
14141;SDS011;7151;52.246;4.820;2022-09-09T13:01:31;5.07;;;2.50;;
14141;SDS011;7151;52.246;4.820;2022-09-09T13:04:00;5.30;;;2.43;;
14141;SDS011;7151;52.246;4.820;2022-09-09T13:06:27;4.60;;;2.23;;
14141;SDS011;7151;52.246;4.820;2022-09-09T13:08:55;4.23;;;2.20;;
14141;SDS011;7151;52.246;4.820;2022-09-09T13:11:24;3.87;;;2.47;;
14141;SDS011;7151;52.246;4.820;2022-09-09T13:13:54;3.23;;;2.43;;
14141;SDS011;7151;52.246;4.820;2022-09-09T13:16:23;2.27;;;1.90;;
14141;SDS011;7151;52.246;4.820;2022-09-09T13:18:55;4.70;;;2.20;;
14141;SDS011;7151;52.246;4.820;2022-09-09T13:21:30;2.17;;;1.80;;
14141;SDS011;7151;52.246;4.820;2022-09-09T13:24:00;2.90;;;1.73;;
14141;SDS011;7151;52.246;4.820;2022-09-09T13:26:28;1.57;;;1.37;;
14141;SDS011;7151;52.246;4.820;2022-09-09T13:28:55;1.40;;;1.30;;
14141;SDS011;7151;52.246;4.820;2022-09-09T13:31:33;2.70;;;1.50;;
14141;SDS011;7151;52.246;4.820;2022-09-09T13:34:11;2.23;;;1.60;;
14141;SDS011;7151;52.246;4.820;2022-09-09T13:36:58;4.80;;;1.87;;
14141;SDS011;7151;52.246;4.820;2022-09-09T13:39:28;2.83;;;1.47;;
14141;SDS011;7151;52.246;4.820;2022-09-09T13:41:54;1.53;;;1.33;;
14141;SDS011;7151;52.246;4.820;2022-09-09T13:44:21;1.67;;;1.53;;
14141;SDS011;7151;52.246;4.820;2022-09-09T13:47:27;1.73;;;1.40;;
14141;SDS011;7151;52.246;4.820;2022-09-09T13:49:48;3.40;;;1.50;;
14141;SDS011;7151;52.246;4.820;2022-09-09T13:52:15;1.73;;;1.40;;
14141;SDS011;7151;52.246;4.820;2022-09-09T13:54:47;1.40;;;1.30;;
14141;SDS011;7151;52.246;4.820;2022-09-09T13:57:15;5.17;;;1.60;;
14141;SDS011;7151;52.246;4.820;2022-09-09T13:59:42;1.50;;;1.07;;
14141;SDS011;7151;52.246;4.820;2022-09-09T14:02:07;3.27;;;1.30;;
14141;SDS011;7151;52.246;4.820;2022-09-09T14:04:33;3.60;;;1.53;;
14141;SDS011;7151;52.246;4.820;2022-09-09T14:07:00;3.17;;;1.40;;
14141;SDS011;7151;52.246;4.820;2022-09-09T14:09:26;2.30;;;1.00;;
14141;SDS011;7151;52.246;4.820;2022-09-09T14:11:51;4.87;;;1.50;;
14141;SDS011;7151;52.246;4.820;2022-09-09T14:14:17;1.93;;;1.17;;
14141;SDS011;7151;52.246;4.820;2022-09-09T14:16:42;3.93;;;1.00;;
14141;SDS011;7151;52.246;4.820;2022-09-09T14:19:08;1.67;;;1.10;;
14141;SDS011;7151;52.246;4.820;2022-09-09T14:21:34;1.83;;;1.20;;
14141;SDS011;7151;52.246;4.820;2022-09-09T14:24:00;1.40;;;1.30;;
14141;SDS011;7151;52.246;4.820;2022-09-09T14:26:25;2.03;;;1.30;;
14141;SDS011;7151;52.246;4.820;2022-09-09T14:28:53;3.87;;;1.23;;
14141;SDS011;7151;52.246;4.820;2022-09-09T14:31:19;2.10;;;1.10;;
14141;SDS011;7151;52.246;4.820;2022-09-09T14:33:45;1.67;;;1.00;;
14141;SDS011;7151;52.246;4.820;2022-09-09T14:36:11;2.80;;;1.00;;
14141;SDS011;7151;52.246;4.820;2022-09-09T14:38:37;1.70;;;0.60;;
14141;SDS011;7151;52.246;4.820;2022-09-09T14:41:05;2.50;;;1.43;;
14141;SDS011;7151;52.246;4.820;2022-09-09T14:43:31;1.57;;;0.83;;
14141;SDS011;7151;52.246;4.820;2022-09-09T14:45:57;3.73;;;1.10;;
14141;SDS011;7151;52.246;4.820;2022-09-09T14:48:33;2.07;;;1.00;;
14141;SDS011;7151;52.246;4.820;2022-09-09T14:51:12;1.17;;;0.60;;
14141;SDS011;7151;52.246;4.820;2022-09-09T14:53:51;2.37;;;0.90;;
14141;SDS011;7151;52.246;4.820;2022-09-09T14:56:19;1.60;;;0.90;;
14141;SDS011;7151;52.246;4.820;2022-09-09T14:58:47;1.70;;;0.77;;
14141;SDS011;7151;52.246;4.820;2022-09-09T15:01:14;1.63;;;0.90;;
14141;SDS011;7151;52.246;4.820;2022-09-09T15:03:42;5.70;;;1.50;;
14141;SDS011;7151;52.246;4.820;2022-09-09T15:06:13;1.63;;;1.13;;
14141;SDS011;7151;52.246;4.820;2022-09-09T15:08:41;2.47;;;1.17;;
14141;SDS011;7151;52.246;4.820;2022-09-09T15:11:08;2.33;;;1.03;;
14141;SDS011;7151;52.246;4.820;2022-09-09T15:13:36;1.67;;;1.33;;
14141;SDS011;7151;52.246;4.820;2022-09-09T15:18:36;1.87;;;0.90;;
14141;SDS011;7151;52.246;4.820;2022-09-09T15:21:05;1.93;;;0.77;;
14141;SDS011;7151;52.246;4.820;2022-09-09T15:23:31;2.73;;;0.93;;
14141;SDS011;7151;52.246;4.820;2022-09-09T15:25:57;1.13;;;0.60;;
14141;SDS011;7151;52.246;4.820;2022-09-09T15:28:23;1.50;;;0.90;;
14141;SDS011;7151;52.246;4.820;2022-09-09T15:30:49;2.87;;;0.80;;
14141;SDS011;7151;52.246;4.820;2022-09-09T15:33:17;2.10;;;1.07;;
14141;SDS011;7151;52.246;4.820;2022-09-09T15:35:46;3.03;;;1.10;;
14141;SDS011;7151;52.246;4.820;2022-09-09T15:38:12;2.07;;;0.87;;
14141;SDS011;7151;52.246;4.820;2022-09-09T15:40:40;2.13;;;0.90;;
14141;SDS011;7151;52.246;4.820;2022-09-09T15:43:06;2.37;;;0.90;;
14141;SDS011;7151;52.246;4.820;2022-09-09T15:45:34;2.37;;;1.30;;
14141;SDS011;7151;52.246;4.820;2022-09-09T15:48:00;3.40;;;1.50;;
14141;SDS011;7151;52.246;4.820;2022-09-09T15:50:27;8.23;;;1.97;;
14141;SDS011;7151;52.246;4.820;2022-09-09T15:52:53;3.90;;;1.60;;
14141;SDS011;7151;52.246;4.820;2022-09-09T15:55:19;2.47;;;0.83;;
14141;SDS011;7151;52.246;4.820;2022-09-09T15:57:49;5.03;;;1.37;;
14141;SDS011;7151;52.246;4.820;2022-09-09T16:00:17;4.17;;;1.30;;
14141;SDS011;7151;52.246;4.820;2022-09-09T16:02:43;4.23;;;1.27;;
14141;SDS011;7151;52.246;4.820;2022-09-09T16:05:09;2.83;;;1.10;;
14141;SDS011;7151;52.246;4.820;2022-09-09T16:07:34;5.03;;;1.50;;
14141;SDS011;7151;52.246;4.820;2022-09-09T16:10:01;2.47;;;1.17;;
14141;SDS011;7151;52.246;4.820;2022-09-09T16:12:27;1.77;;;0.80;;
14141;SDS011;7151;52.246;4.820;2022-09-09T16:14:52;4.30;;;1.03;;
14141;SDS011;7151;52.246;4.820;2022-09-09T16:17:18;3.23;;;0.70;;
14141;SDS011;7151;52.246;4.820;2022-09-09T16:19:45;2.80;;;0.87;;
14141;SDS011;7151;52.246;4.820;2022-09-09T16:22:10;2.07;;;0.80;;
14141;SDS011;7151;52.246;4.820;2022-09-09T16:24:36;1.80;;;0.90;;
14141;SDS011;7151;52.246;4.820;2022-09-09T16:27:02;3.53;;;1.00;;
14141;SDS011;7151;52.246;4.820;2022-09-09T16:29:27;1.87;;;0.80;;
14141;SDS011;7151;52.246;4.820;2022-09-09T16:31:53;1.10;;;0.80;;
14141;SDS011;7151;52.246;4.820;2022-09-09T16:34:19;2.97;;;1.20;;
14141;SDS011;7151;52.246;4.820;2022-09-09T16:36:46;2.17;;;0.77;;
14141;SDS011;7151;52.246;4.820;2022-09-09T16:39:16;2.90;;;0.80;;
14141;SDS011;7151;52.246;4.820;2022-09-09T16:41:45;2.77;;;1.00;;
14141;SDS011;7151;52.246;4.820;2022-09-09T16:44:12;1.87;;;0.97;;
14141;SDS011;7151;52.246;4.820;2022-09-09T16:46:41;0.77;;;0.70;;
14141;SDS011;7151;52.246;4.820;2022-09-09T16:49:09;3.13;;;1.07;;
14141;SDS011;7151;52.246;4.820;2022-09-09T16:51:40;2.27;;;0.97;;
14141;SDS011;7151;52.246;4.820;2022-09-09T16:54:08;1.57;;;1.07;;
14141;SDS011;7151;52.246;4.820;2022-09-09T16:56:36;1.80;;;0.87;;
14141;SDS011;7151;52.246;4.820;2022-09-09T16:59:13;3.60;;;1.47;;
14141;SDS011;7151;52.246;4.820;2022-09-09T17:01:41;3.73;;;0.90;;
14141;SDS011;7151;52.246;4.820;2022-09-09T17:04:09;4.63;;;1.43;;
14141;SDS011;7151;52.246;4.820;2022-09-09T17:06:38;4.57;;;0.97;;
14141;SDS011;7151;52.246;4.820;2022-09-09T17:09:07;2.40;;;1.20;;
14141;SDS011;7151;52.246;4.820;2022-09-09T17:11:35;2.60;;;1.30;;
14141;SDS011;7151;52.246;4.820;2022-09-09T17:14:02;2.37;;;1.33;;
14141;SDS011;7151;52.246;4.820;2022-09-09T17:16:30;2.23;;;1.70;;
14141;SDS011;7151;52.246;4.820;2022-09-09T17:18:58;2.83;;;1.60;;
14141;SDS011;7151;52.246;4.820;2022-09-09T17:21:26;4.00;;;1.50;;